createdAt,value
2018-08-28T00:00:23.332Z,0.00
2018-08-28T00:01:23.347Z,0.00
2018-08-28T00:02:23.312Z,0.00
2018-08-28T00:03:23.313Z,0.00
2018-08-28T00:04:23.295Z,0.00
2018-08-28T00:05:23.280Z,0.00
2018-08-28T00:06:23.301Z,0.00
2018-08-28T00:07:23.266Z,0.00
2018-08-28T00:08:23.250Z,0.00
2018-08-28T00:09:23.243Z,0.00
2018-08-28T00:10:23.228Z,0.00
2018-08-28T00:11:23.224Z,0.00
2018-08-28T00:12:23.247Z,0.00
2018-08-28T00:13:23.194Z,0.00
2018-08-28T00:14:23.181Z,0.00
2018-08-28T00:15:23.170Z,0.00
2018-08-28T00:16:23.162Z,0.00
2018-08-28T00:17:23.174Z,0.00
2018-08-28T00:18:23.138Z,0.00
2018-08-28T00:19:23.130Z,0.00
2018-08-28T00:20:23.126Z,0.00
2018-08-28T00:21:23.123Z,0.00
2018-08-28T00:22:23.122Z,0.00
2018-08-28T00:23:23.084Z,0.00
2018-08-28T00:24:23.076Z,0.00
2018-08-28T00:25:23.061Z,0.00
2018-08-28T00:26:23.059Z,0.00
2018-08-28T00:27:23.099Z,0.00
2018-08-28T00:28:23.029Z,0.00
2018-08-28T00:29:23.019Z,0.00
2018-08-28T00:30:23.041Z,0.00
2018-08-28T00:31:23.003Z,0.00
2018-08-28T00:32:22.996Z,0.00
2018-08-28T00:33:23.009Z,0.00
2018-08-28T00:34:22.964Z,0.00
2018-08-28T00:35:22.954Z,0.00
2018-08-28T00:36:22.966Z,0.00
2018-08-28T00:37:22.943Z,0.00
2018-08-28T00:38:22.925Z,0.00
2018-08-28T00:39:22.956Z,0.00
2018-08-28T00:40:22.908Z,0.00
2018-08-28T00:41:22.888Z,0.00
2018-08-28T00:42:22.892Z,0.00
2018-08-28T00:43:22.886Z,0.00
2018-08-28T00:44:22.893Z,0.00
2018-08-28T00:45:22.859Z,0.00
2018-08-28T00:46:22.837Z,0.00
2018-08-28T00:47:22.822Z,0.00
2018-08-28T00:48:22.820Z,0.00
2018-08-28T00:49:22.826Z,0.00
2018-08-28T00:50:22.793Z,0.00
2018-08-28T00:51:22.780Z,0.00
2018-08-28T00:52:22.806Z,0.00
2018-08-28T00:53:22.759Z,0.00
2018-08-28T00:54:22.782Z,0.00
2018-08-28T00:55:22.739Z,0.00
2018-08-28T00:56:22.726Z,0.00
2018-08-28T00:57:22.716Z,0.00
2018-08-28T00:58:22.708Z,0.00
2018-08-28T00:59:22.722Z,0.00
2018-08-28T01:00:22.682Z,0.00
2018-08-28T01:01:22.674Z,0.00
2018-08-28T01:02:22.661Z,0.00
2018-08-28T01:03:22.661Z,0.00
2018-08-28T01:04:22.670Z,0.00
2018-08-28T01:05:22.632Z,0.00
2018-08-28T01:06:22.618Z,0.00
2018-08-28T01:07:22.606Z,0.00
2018-08-28T01:08:22.601Z,0.00
2018-08-28T01:09:22.588Z,0.00
2018-08-28T01:10:22.602Z,0.00
2018-08-28T01:11:22.563Z,0.00
2018-08-28T01:12:22.554Z,0.00
2018-08-28T01:13:22.547Z,0.00
2018-08-28T01:14:22.531Z,0.00
2018-08-28T01:15:22.554Z,0.00
2018-08-28T01:16:22.512Z,0.00
2018-08-28T01:17:22.521Z,0.00
2018-08-28T01:18:22.486Z,0.00
2018-08-28T01:19:22.480Z,0.00
2018-08-28T01:20:22.467Z,0.00
2018-08-28T01:21:22.477Z,0.00
2018-08-28T01:22:22.455Z,0.00
2018-08-28T01:23:22.454Z,0.00
2018-08-28T01:24:22.453Z,0.00
2018-08-28T01:25:22.418Z,0.00
2018-08-28T01:26:22.437Z,0.00
2018-08-28T01:27:22.433Z,0.00
2018-08-28T01:28:22.378Z,0.00
2018-08-28T01:29:22.371Z,0.00
2018-08-28T01:30:22.372Z,0.00
2018-08-28T01:31:22.381Z,0.00
2018-08-28T01:32:22.339Z,0.00
2018-08-28T01:33:22.334Z,0.00
2018-08-28T01:34:22.315Z,0.00
2018-08-28T01:35:22.303Z,0.00
2018-08-28T01:36:22.325Z,0.00
2018-08-28T01:37:22.287Z,0.00
2018-08-28T01:38:22.272Z,0.00
2018-08-28T01:39:22.265Z,0.00
2018-08-28T01:40:22.259Z,0.00
2018-08-28T01:41:22.324Z,0.00
2018-08-28T01:42:22.227Z,0.00
2018-08-28T01:43:22.220Z,0.00
2018-08-28T01:44:22.214Z,0.00
2018-08-28T01:45:22.198Z,0.00
2018-08-28T01:46:22.186Z,0.00
2018-08-28T01:47:22.207Z,0.00
2018-08-28T01:48:22.185Z,0.00
2018-08-28T01:49:22.165Z,0.00
2018-08-28T01:50:22.193Z,0.00
2018-08-28T01:51:22.132Z,0.00
2018-08-28T01:52:22.162Z,0.00
2018-08-28T01:53:22.115Z,0.00
2018-08-28T01:54:22.101Z,0.00
2018-08-28T01:55:22.085Z,0.00
2018-08-28T01:56:22.082Z,0.00
2018-08-28T01:57:22.075Z,0.00
2018-08-28T01:58:22.091Z,0.00
2018-08-28T01:59:22.046Z,0.00
2018-08-28T02:00:22.038Z,0.00
2018-08-28T02:01:22.025Z,0.00
2018-08-28T02:02:22.010Z,0.00
2018-08-28T02:03:22.037Z,0.00
2018-08-28T02:04:21.989Z,0.00
2018-08-28T02:05:21.984Z,0.00
2018-08-28T02:06:21.985Z,0.00
2018-08-28T02:07:21.975Z,0.00
2018-08-28T02:08:21.971Z,0.00
2018-08-28T02:09:21.936Z,0.00
2018-08-28T02:10:21.925Z,0.00
2018-08-28T02:11:21.917Z,0.00
2018-08-28T02:12:21.910Z,0.00
2018-08-28T02:13:22.070Z,0.00
2018-08-28T02:14:21.879Z,0.00
2018-08-28T02:15:21.880Z,0.00
2018-08-28T02:16:21.861Z,0.00
2018-08-28T02:17:21.858Z,0.00
2018-08-28T02:18:21.909Z,0.00
2018-08-28T02:19:21.825Z,0.00
2018-08-28T02:20:21.816Z,0.00
2018-08-28T02:21:21.823Z,0.00
2018-08-28T02:22:21.796Z,0.00
2018-08-28T02:23:21.814Z,0.00
2018-08-28T02:24:21.813Z,0.00
2018-08-28T02:25:21.764Z,0.00
2018-08-28T02:26:21.749Z,0.00
2018-08-28T02:27:21.739Z,0.00
2018-08-28T02:28:21.733Z,0.00
2018-08-28T02:29:21.743Z,0.00
2018-08-28T02:30:21.713Z,0.00
2018-08-28T02:31:21.698Z,0.00
2018-08-28T02:32:21.695Z,0.00
2018-08-28T02:33:21.687Z,0.00
2018-08-28T02:34:21.692Z,0.00
2018-08-28T02:35:21.654Z,0.00
2018-08-28T02:36:21.647Z,0.00
2018-08-28T02:37:21.633Z,0.00
2018-08-28T02:38:21.641Z,0.00
2018-08-28T02:39:21.635Z,0.00
2018-08-28T02:40:21.599Z,0.00
2018-08-28T02:41:21.602Z,0.00
2018-08-28T02:42:21.587Z,0.00
2018-08-28T02:43:21.573Z,0.00
2018-08-28T02:44:21.585Z,0.00
2018-08-28T02:45:21.569Z,0.00
2018-08-28T02:46:21.542Z,0.00
2018-08-28T02:47:21.524Z,0.00
2018-08-28T02:48:21.514Z,0.00
2018-08-28T02:49:21.505Z,0.00
2018-08-28T02:50:21.545Z,0.00
2018-08-28T02:51:21.486Z,0.00
2018-08-28T02:52:21.474Z,0.00
2018-08-28T02:53:21.462Z,0.00
2018-08-28T02:54:21.478Z,0.00
2018-08-28T02:55:21.480Z,0.00
2018-08-28T02:56:21.592Z,0.00
2018-08-28T02:57:21.421Z,0.00
2018-08-28T02:58:21.422Z,0.00
2018-08-28T02:59:21.399Z,0.00
2018-08-28T03:00:21.408Z,0.00
2018-08-28T03:01:21.374Z,0.00
2018-08-28T03:02:21.364Z,0.00
2018-08-28T03:03:21.353Z,0.00
2018-08-28T03:04:21.344Z,0.00
2018-08-28T03:05:21.357Z,0.00
2018-08-28T03:06:21.320Z,0.00
2018-08-28T03:07:21.309Z,0.00
2018-08-28T03:08:21.304Z,0.00
2018-08-28T03:09:21.289Z,0.00
2018-08-28T03:10:21.312Z,0.00
2018-08-28T03:11:21.316Z,0.00
2018-08-28T03:12:21.258Z,0.00
2018-08-28T03:13:21.244Z,0.00
2018-08-28T03:14:21.234Z,0.00
2018-08-28T03:15:21.252Z,0.00
2018-08-28T03:16:21.235Z,0.00
2018-08-28T03:17:21.203Z,0.00
2018-08-28T03:18:21.192Z,0.00
2018-08-28T03:19:21.181Z,0.00
2018-08-28T03:20:21.169Z,0.00
2018-08-28T03:21:21.194Z,0.00
2018-08-28T03:22:21.162Z,0.00
2018-08-28T03:23:21.141Z,0.00
2018-08-28T03:24:21.128Z,0.00
2018-08-28T03:25:21.121Z,0.00
2018-08-28T03:26:21.107Z,0.00
2018-08-28T03:27:21.128Z,0.00
2018-08-28T03:28:21.085Z,0.00
2018-08-28T03:29:21.079Z,0.00
2018-08-28T03:30:21.066Z,0.00
2018-08-28T03:31:21.062Z,0.00
2018-08-28T03:32:21.085Z,0.00
2018-08-28T03:33:21.030Z,0.00
2018-08-28T03:34:21.033Z,0.00
2018-08-28T03:35:21.010Z,0.00
2018-08-28T03:36:21.005Z,0.00
2018-08-28T03:37:21.024Z,0.00
2018-08-28T03:38:20.976Z,0.00
2018-08-28T03:39:20.973Z,0.00
2018-08-28T03:40:20.959Z,0.00
2018-08-28T03:41:20.946Z,0.00
2018-08-28T03:42:20.965Z,0.00
2018-08-28T03:43:20.923Z,0.00
2018-08-28T03:44:20.919Z,0.00
2018-08-28T03:45:20.908Z,0.00
2018-08-28T03:46:20.894Z,0.00
2018-08-28T03:47:20.914Z,0.00
2018-08-28T03:48:20.872Z,0.00
2018-08-28T03:49:20.859Z,0.00
2018-08-28T03:50:20.853Z,0.00
2018-08-28T03:51:20.847Z,0.00
2018-08-28T03:52:20.881Z,0.00
2018-08-28T03:53:20.819Z,0.00
2018-08-28T03:54:20.815Z,0.00
2018-08-28T03:55:20.833Z,0.00
2018-08-28T03:56:20.791Z,0.00
2018-08-28T03:57:20.815Z,0.00
2018-08-28T03:58:20.763Z,0.00
2018-08-28T03:59:20.753Z,0.00
2018-08-28T04:00:20.742Z,0.00
2018-08-28T04:01:20.729Z,0.00
2018-08-28T04:02:20.720Z,0.00
2018-08-28T04:03:20.734Z,0.00
2018-08-28T04:04:20.701Z,0.00
2018-08-28T04:05:20.701Z,0.00
2018-08-28T04:06:20.690Z,0.00
2018-08-28T04:07:20.668Z,4.00
2018-08-28T04:08:20.699Z,4.00
2018-08-28T04:09:20.646Z,0.00
2018-08-28T04:10:20.640Z,4.00
2018-08-28T04:11:20.623Z,4.00
2018-08-28T04:12:20.620Z,4.00
2018-08-28T04:13:20.679Z,8.00
2018-08-28T04:14:20.596Z,8.00
2018-08-28T04:15:20.580Z,8.00
2018-08-28T04:16:20.572Z,8.00
2018-08-28T04:17:20.557Z,12.00
2018-08-28T04:18:20.549Z,16.00
2018-08-28T04:19:20.588Z,16.00
2018-08-28T04:20:20.531Z,20.00
2018-08-28T04:21:20.520Z,24.00
2018-08-28T04:22:20.522Z,28.00
2018-08-28T04:23:20.497Z,32.00
2018-08-28T04:24:20.516Z,36.00
2018-08-28T04:25:20.482Z,40.00
2018-08-28T04:26:20.467Z,48.00
2018-08-28T04:27:20.464Z,52.00
2018-08-28T04:28:20.441Z,64.00
2018-08-28T04:29:20.480Z,68.00
2018-08-28T04:30:20.485Z,80.00
2018-08-28T04:31:20.413Z,88.00
2018-08-28T04:32:20.397Z,96.00
2018-08-28T04:33:20.390Z,108.00
2018-08-28T04:34:20.408Z,124.00
2018-08-28T04:35:20.385Z,132.00
2018-08-28T04:36:20.359Z,148.00
2018-08-28T04:37:20.344Z,164.00
2018-08-28T04:38:20.333Z,180.00
2018-08-28T04:39:20.335Z,200.00
2018-08-28T04:40:20.333Z,220.00
2018-08-28T04:41:20.306Z,236.00
2018-08-28T04:42:20.289Z,256.00
2018-08-28T04:43:20.296Z,280.00
2018-08-28T04:44:20.294Z,304.00
2018-08-28T04:45:20.256Z,332.00
2018-08-28T04:46:20.247Z,352.00
2018-08-28T04:47:20.236Z,380.00
2018-08-28T04:48:20.229Z,412.00
2018-08-28T04:49:20.216Z,444.00
2018-08-28T04:50:20.224Z,476.00
2018-08-28T04:51:20.193Z,504.00
2018-08-28T04:52:20.185Z,540.00
2018-08-28T04:53:20.178Z,576.00
2018-08-28T04:54:20.322Z,608.00
2018-08-28T04:55:20.184Z,652.00
2018-08-28T04:56:20.140Z,688.00
2018-08-28T04:57:20.129Z,728.00
2018-08-28T04:58:20.129Z,768.00
2018-08-28T04:59:20.144Z,816.00
2018-08-28T05:00:20.101Z,860.00
2018-08-28T05:01:20.107Z,904.00
2018-08-28T05:02:20.071Z,948.00
2018-08-28T05:03:20.059Z,1000.00
2018-08-28T05:04:20.049Z,1048.00
2018-08-28T05:05:20.039Z,1096.00
2018-08-28T05:06:20.054Z,1144.00
2018-08-28T05:07:20.022Z,1196.00
2018-08-28T05:08:20.005Z,1252.00
2018-08-28T05:09:19.994Z,1304.00
2018-08-28T05:10:19.986Z,1356.00
2018-08-28T05:11:20.020Z,1408.00
2018-08-28T05:12:19.966Z,1464.00
2018-08-28T05:13:19.962Z,1520.00
2018-08-28T05:14:19.940Z,1576.00
2018-08-28T05:15:19.933Z,1632.00
2018-08-28T05:16:19.932Z,1684.00
2018-08-28T05:17:19.938Z,1744.00
2018-08-28T05:18:19.919Z,1800.00
2018-08-28T05:19:19.938Z,1856.00
2018-08-28T05:20:19.874Z,1912.00
2018-08-28T05:21:19.870Z,1972.00
2018-08-28T05:22:19.882Z,2028.00
2018-08-28T05:23:19.874Z,2088.00
2018-08-28T05:24:19.832Z,2148.00
2018-08-28T05:25:19.820Z,2208.00
2018-08-28T05:26:19.810Z,2272.00
2018-08-28T05:27:19.835Z,2332.00
2018-08-28T05:28:19.787Z,2392.00
2018-08-28T05:29:19.788Z,2452.00
2018-08-28T05:30:19.772Z,2516.00
2018-08-28T05:31:19.762Z,2576.00
2018-08-28T05:32:19.748Z,2636.00
2018-08-28T05:33:19.757Z,2692.00
2018-08-28T05:34:19.730Z,2744.00
2018-08-28T05:35:19.727Z,2804.00
2018-08-28T05:36:19.703Z,2860.00
2018-08-28T05:37:19.691Z,2916.00
2018-08-28T05:38:19.710Z,2972.00
2018-08-28T05:39:19.673Z,3040.00
2018-08-28T05:40:19.657Z,3100.00
2018-08-28T05:41:19.649Z,3156.00
2018-08-28T05:42:19.641Z,3220.00
2018-08-28T05:43:19.626Z,3280.00
2018-08-28T05:44:19.637Z,3336.00
2018-08-28T05:45:19.604Z,3400.00
2018-08-28T05:46:19.595Z,3460.00
2018-08-28T05:47:19.580Z,3528.00
2018-08-28T05:48:19.572Z,3584.00
2018-08-28T05:49:19.602Z,3644.00
2018-08-28T05:50:19.554Z,3704.00
2018-08-28T05:51:19.554Z,3768.00
2018-08-28T05:52:19.530Z,3828.00
2018-08-28T05:53:19.532Z,3888.00
2018-08-28T05:54:19.571Z,3952.00
2018-08-28T05:55:19.498Z,4016.00
2018-08-28T05:56:19.575Z,4076.00
2018-08-28T05:57:19.475Z,4140.00
2018-08-28T05:58:19.466Z,4204.00
2018-08-28T05:59:19.451Z,4264.00
2018-08-28T06:00:19.476Z,4328.00
2018-08-28T06:01:19.438Z,4392.00
2018-08-28T06:02:19.422Z,4460.00
2018-08-28T06:03:19.533Z,4520.00
2018-08-28T06:04:19.398Z,4584.00
2018-08-28T06:05:19.390Z,4640.00
2018-08-28T06:06:19.411Z,4692.00
2018-08-28T06:07:19.414Z,4748.00
2018-08-28T06:08:19.357Z,4808.00
2018-08-28T06:09:19.344Z,4876.00
2018-08-28T06:10:19.333Z,4944.00
2018-08-28T06:11:19.351Z,5000.00
2018-08-28T06:12:19.312Z,5064.00
2018-08-28T06:13:19.310Z,5128.00
2018-08-28T06:14:19.290Z,5200.00
2018-08-28T06:15:19.279Z,5248.00
2018-08-28T06:16:19.295Z,5292.00
2018-08-28T06:17:19.259Z,5340.00
2018-08-28T06:18:19.308Z,5388.00
2018-08-28T06:19:19.240Z,5588.00
2018-08-28T06:20:19.227Z,6076.00
2018-08-28T06:21:19.250Z,6168.00
2018-08-28T06:22:19.204Z,5612.00
2018-08-28T06:23:19.192Z,5664.00
2018-08-28T06:24:19.185Z,5728.00
2018-08-28T06:25:19.171Z,5792.00
2018-08-28T06:26:19.194Z,5880.00
2018-08-28T06:27:19.183Z,6220.00
2018-08-28T06:28:19.140Z,6316.00
2018-08-28T06:29:19.132Z,6168.00
2018-08-28T06:30:19.131Z,6144.00
2018-08-28T06:31:19.107Z,6268.00
2018-08-28T06:32:19.097Z,6896.00
2018-08-28T06:33:19.112Z,7684.00
2018-08-28T06:34:19.102Z,6848.00
2018-08-28T06:35:19.084Z,6500.00
2018-08-28T06:36:19.051Z,6912.00
2018-08-28T06:37:19.082Z,9840.00
2018-08-28T06:38:19.053Z,10648.00
2018-08-28T06:39:19.025Z,7736.00
2018-08-28T06:40:19.013Z,7052.00
2018-08-28T06:41:19.007Z,7076.00
2018-08-28T06:42:18.999Z,7172.00
2018-08-28T06:43:19.063Z,10640.00
2018-08-28T06:44:18.968Z,13056.00
2018-08-28T06:45:18.964Z,9668.00
2018-08-28T06:46:18.977Z,7292.00
2018-08-28T06:47:18.934Z,7280.00
2018-08-28T06:48:19.022Z,7348.00
2018-08-28T06:49:18.914Z,7400.00
2018-08-28T06:50:18.907Z,7460.00
2018-08-28T06:51:18.906Z,7688.00
2018-08-28T06:52:18.882Z,8404.00
2018-08-28T06:53:18.877Z,9132.00
2018-08-28T06:54:18.893Z,8560.00
2018-08-28T06:55:18.850Z,7596.00
2018-08-28T06:56:18.838Z,7608.00
2018-08-28T06:57:18.827Z,7668.00
2018-08-28T06:58:18.816Z,7980.00
2018-08-28T06:59:18.847Z,9380.00
2018-08-28T07:00:18.796Z,13160.00
2018-08-28T07:01:18.793Z,18112.00
2018-08-28T07:02:18.778Z,20000.00
2018-08-28T07:03:18.763Z,21152.00
2018-08-28T07:04:18.753Z,21760.00
2018-08-28T07:05:18.768Z,21408.00
2018-08-28T07:06:18.731Z,21600.00
2018-08-28T07:07:18.737Z,22240.00
2018-08-28T07:08:18.711Z,22368.00
2018-08-28T07:09:18.701Z,22848.00
2018-08-28T07:10:18.737Z,22560.00
2018-08-28T07:11:18.682Z,23552.00
2018-08-28T07:12:18.686Z,24224.00
2018-08-28T07:13:18.670Z,25248.00
2018-08-28T07:14:18.646Z,25440.00
2018-08-28T07:15:18.667Z,23072.00
2018-08-28T07:16:18.635Z,15232.00
2018-08-28T07:17:18.613Z,8784.00
2018-08-28T07:18:18.608Z,8484.00
2018-08-28T07:19:18.606Z,8456.00
2018-08-28T07:20:18.581Z,8432.00
2018-08-28T07:21:18.596Z,8408.00
2018-08-28T07:22:18.561Z,8400.00
2018-08-28T07:23:18.554Z,8408.00
2018-08-28T07:24:18.546Z,8412.00
2018-08-28T07:25:18.530Z,8420.00
2018-08-28T07:26:18.556Z,8436.00
2018-08-28T07:27:18.520Z,8472.00
2018-08-28T07:28:18.499Z,8528.00
2018-08-28T07:29:18.484Z,8588.00
2018-08-28T07:30:18.478Z,8656.00
2018-08-28T07:31:18.521Z,8708.00
2018-08-28T07:32:18.480Z,8784.00
2018-08-28T07:33:18.450Z,8800.00
2018-08-28T07:34:18.445Z,8832.00
2018-08-28T07:35:18.448Z,8864.00
2018-08-28T07:36:18.411Z,8904.00
2018-08-28T07:37:18.472Z,8904.00
2018-08-28T07:38:18.394Z,8936.00
2018-08-28T07:39:18.392Z,8952.00
2018-08-28T07:40:18.370Z,8976.00
2018-08-28T07:41:18.356Z,9008.00
2018-08-28T07:42:18.379Z,9048.00
2018-08-28T07:43:18.347Z,9116.00
2018-08-28T07:44:18.324Z,9204.00
2018-08-28T07:45:18.314Z,9308.00
2018-08-28T07:46:18.301Z,9432.00
2018-08-28T07:47:18.321Z,9580.00
2018-08-28T07:48:18.322Z,9664.00
2018-08-28T07:49:18.285Z,9844.00
2018-08-28T07:50:18.258Z,9800.00
2018-08-28T07:51:18.247Z,9696.00
2018-08-28T07:52:18.275Z,9604.00
2018-08-28T07:53:18.228Z,9632.00
2018-08-28T07:54:18.220Z,9912.00
2018-08-28T07:55:18.218Z,10360.00
2018-08-28T07:56:18.192Z,10936.00
2018-08-28T07:57:18.184Z,11052.00
2018-08-28T07:58:18.197Z,11212.00
2018-08-28T07:59:18.161Z,11616.00
2018-08-28T08:00:18.152Z,12264.00
2018-08-28T08:01:18.178Z,12652.00
2018-08-28T08:02:18.133Z,12648.00
2018-08-28T08:03:18.146Z,12452.00
2018-08-28T08:04:18.112Z,12248.00
2018-08-28T08:05:18.097Z,11972.00
2018-08-28T08:06:18.099Z,11404.00
2018-08-28T08:07:18.074Z,11676.00
2018-08-28T08:08:18.111Z,12244.00
2018-08-28T08:09:18.056Z,12188.00
2018-08-28T08:10:18.055Z,12048.00
2018-08-28T08:11:18.033Z,11880.00
2018-08-28T08:12:18.053Z,11900.00
2018-08-28T08:13:18.015Z,11892.00
2018-08-28T08:14:18.029Z,11880.00
2018-08-28T08:15:17.989Z,11540.00
2018-08-28T08:16:18.118Z,10960.00
2018-08-28T08:17:17.975Z,10328.00
2018-08-28T08:18:17.968Z,9780.00
2018-08-28T08:19:17.978Z,9388.00
2018-08-28T08:20:17.938Z,9168.00
2018-08-28T08:21:17.944Z,9032.00
2018-08-28T08:22:18.082Z,9076.00
2018-08-28T08:23:17.910Z,9320.00
2018-08-28T08:24:17.927Z,9384.00
2018-08-28T08:25:17.925Z,9136.00
2018-08-28T08:26:17.883Z,8928.00
2018-08-28T08:27:17.894Z,8904.00
2018-08-28T08:28:18.149Z,8872.00
2018-08-28T08:29:17.844Z,8656.00
2018-08-28T08:30:17.853Z,8716.00
2018-08-28T08:31:17.835Z,8880.00
2018-08-28T08:32:17.821Z,9052.00
2018-08-28T08:33:17.798Z,9048.00
2018-08-28T08:34:17.797Z,9284.00
2018-08-28T08:35:17.873Z,9644.00
2018-08-28T08:36:17.780Z,9900.00
2018-08-28T08:37:17.759Z,10076.00
2018-08-28T08:38:17.748Z,10448.00
2018-08-28T08:39:17.737Z,10864.00
2018-08-28T08:40:17.794Z,11112.00
2018-08-28T08:41:17.720Z,11184.00
2018-08-28T08:42:17.703Z,11092.00
2018-08-28T08:43:17.692Z,11132.00
2018-08-28T08:44:17.682Z,11296.00
2018-08-28T08:45:17.675Z,11444.00
2018-08-28T08:46:17.689Z,11652.00
2018-08-28T08:47:17.651Z,11776.00
2018-08-28T08:48:17.639Z,11692.00
2018-08-28T08:49:17.641Z,11524.00
2018-08-28T08:50:17.619Z,11548.00
2018-08-28T08:51:17.662Z,11656.00
2018-08-28T08:52:17.604Z,11732.00
2018-08-28T08:53:17.592Z,11840.00
2018-08-28T08:54:17.575Z,11760.00
2018-08-28T08:55:17.630Z,11540.00
2018-08-28T08:56:17.601Z,11580.00
2018-08-28T08:57:17.551Z,12016.00
2018-08-28T08:58:17.538Z,12244.00
2018-08-28T08:59:17.525Z,12268.00
2018-08-28T09:00:17.513Z,11996.00
2018-08-28T09:01:17.514Z,11860.00
2018-08-28T09:02:17.514Z,11708.00
2018-08-28T09:03:17.480Z,11988.00
2018-08-28T09:04:17.469Z,12216.00
2018-08-28T09:05:17.461Z,12500.00
2018-08-28T09:06:17.450Z,12924.00
2018-08-28T09:07:17.461Z,13316.00
2018-08-28T09:08:17.439Z,13808.00
2018-08-28T09:09:17.416Z,14716.00
2018-08-28T09:10:17.404Z,15880.00
2018-08-28T09:11:17.396Z,16864.00
2018-08-28T09:12:17.406Z,16896.00
2018-08-28T09:13:17.441Z,16576.00
2018-08-28T09:14:17.408Z,16012.00
2018-08-28T09:15:17.351Z,15868.00
2018-08-28T09:16:17.342Z,15864.00
2018-08-28T09:17:17.355Z,16480.00
2018-08-28T09:18:17.321Z,17152.00
2018-08-28T09:19:17.351Z,17888.00
2018-08-28T09:20:17.308Z,18784.00
2018-08-28T09:21:17.287Z,19168.00
2018-08-28T09:22:17.303Z,19552.00
2018-08-28T09:23:17.266Z,19648.00
2018-08-28T09:24:17.257Z,20064.00
2018-08-28T09:25:17.245Z,20096.00
2018-08-28T09:26:17.245Z,19488.00
2018-08-28T09:27:17.223Z,18784.00
2018-08-28T09:28:17.249Z,18528.00
2018-08-28T09:29:17.207Z,18144.00
2018-08-28T09:30:17.202Z,17600.00
2018-08-28T09:31:17.221Z,16648.00
2018-08-28T09:32:17.238Z,16212.00
2018-08-28T09:33:17.161Z,16060.00
2018-08-28T09:34:17.178Z,15808.00
2018-08-28T09:35:17.141Z,16332.00
2018-08-28T09:36:17.130Z,17344.00
2018-08-28T09:37:17.122Z,18208.00
2018-08-28T09:38:17.166Z,18752.00
2018-08-28T09:39:17.135Z,18944.00
2018-08-28T09:40:17.096Z,19648.00
2018-08-28T09:41:17.086Z,20640.00
2018-08-28T09:42:17.065Z,20896.00
2018-08-28T09:43:17.052Z,21344.00
2018-08-28T09:44:17.077Z,21408.00
2018-08-28T09:45:17.033Z,21152.00
2018-08-28T09:46:17.043Z,21216.00
2018-08-28T09:47:17.010Z,20960.00
2018-08-28T09:48:17.136Z,20864.00
2018-08-28T09:49:17.012Z,20672.00
2018-08-28T09:50:17.037Z,20416.00
2018-08-28T09:51:16.971Z,19968.00
2018-08-28T09:52:16.960Z,20064.00
2018-08-28T09:53:16.946Z,20224.00
2018-08-28T09:54:16.975Z,20512.00
2018-08-28T09:55:16.934Z,20960.00
2018-08-28T09:56:16.919Z,20576.00
2018-08-28T09:57:16.926Z,20608.00
2018-08-28T09:58:16.891Z,20480.00
2018-08-28T09:59:16.882Z,19456.00
2018-08-28T10:00:16.900Z,18528.00
2018-08-28T10:01:16.871Z,17408.00
2018-08-28T10:02:16.850Z,16700.00
2018-08-28T10:03:16.838Z,16644.00
2018-08-28T10:04:16.829Z,16412.00
2018-08-28T10:05:16.843Z,16388.00
2018-08-28T10:06:16.813Z,16284.00
2018-08-28T10:07:16.799Z,16064.00
2018-08-28T10:08:16.786Z,15780.00
2018-08-28T10:09:16.777Z,16000.00
2018-08-28T10:10:16.788Z,15572.00
2018-08-28T10:11:16.756Z,15636.00
2018-08-28T10:12:16.749Z,15328.00
2018-08-28T10:13:16.735Z,14688.00
2018-08-28T10:14:16.723Z,14712.00
2018-08-28T10:15:16.742Z,14948.00
2018-08-28T10:16:16.700Z,15116.00
2018-08-28T10:17:16.751Z,14840.00
2018-08-28T10:18:16.686Z,14224.00
2018-08-28T10:19:16.676Z,13668.00
2018-08-28T10:20:16.696Z,13320.00
2018-08-28T10:21:16.654Z,13000.00
2018-08-28T10:22:16.636Z,12852.00
2018-08-28T10:23:16.628Z,12528.00
2018-08-28T10:24:16.617Z,12232.00
2018-08-28T10:25:16.605Z,11792.00
2018-08-28T10:26:16.630Z,11700.00
2018-08-28T10:27:16.588Z,11684.00
2018-08-28T10:28:16.583Z,11884.00
2018-08-28T10:29:16.562Z,11808.00
2018-08-28T10:30:16.586Z,11716.00
2018-08-28T10:31:16.573Z,11716.00
2018-08-28T10:32:16.533Z,11824.00
2018-08-28T10:33:16.519Z,12192.00
2018-08-28T10:34:16.509Z,12228.00
2018-08-28T10:35:16.504Z,11844.00
2018-08-28T10:36:16.518Z,11604.00
2018-08-28T10:37:16.489Z,11456.00
2018-08-28T10:38:16.637Z,12064.00
2018-08-28T10:39:16.455Z,13284.00
2018-08-28T10:40:16.468Z,13492.00
2018-08-28T10:41:16.459Z,13256.00
2018-08-28T10:42:16.425Z,12904.00
2018-08-28T10:43:16.430Z,12452.00
2018-08-28T10:44:16.412Z,11816.00
2018-08-28T10:45:16.391Z,11152.00
2018-08-28T10:46:16.436Z,10920.00
2018-08-28T10:47:16.371Z,10796.00
2018-08-28T10:48:16.368Z,10908.00
2018-08-28T10:49:16.361Z,10656.00
2018-08-28T10:50:16.351Z,10748.00
2018-08-28T10:51:16.328Z,10576.00
2018-08-28T10:52:16.364Z,10492.00
2018-08-28T10:53:16.307Z,10636.00
2018-08-28T10:54:16.297Z,11644.00
2018-08-28T10:55:16.293Z,10564.00
2018-08-28T10:56:16.278Z,10508.00
2018-08-28T10:57:16.288Z,10580.00
2018-08-28T10:58:16.254Z,10516.00
2018-08-28T10:59:16.246Z,10524.00
2018-08-28T11:00:16.234Z,10708.00
2018-08-28T11:01:16.221Z,10588.00
2018-08-28T11:02:16.243Z,10596.00
2018-08-28T11:03:16.203Z,10816.00
2018-08-28T11:04:16.195Z,10628.00
2018-08-28T11:05:16.180Z,10584.00
2018-08-28T11:06:16.171Z,10528.00
2018-08-28T11:07:16.189Z,10780.00
2018-08-28T11:08:16.148Z,10620.00
2018-08-28T11:09:16.143Z,10552.00
2018-08-28T11:10:16.130Z,10568.00
2018-08-28T11:11:16.127Z,10656.00
2018-08-28T11:12:16.200Z,10528.00
2018-08-28T11:13:16.104Z,10540.00
2018-08-28T11:14:16.084Z,10532.00
2018-08-28T11:15:16.073Z,10576.00
2018-08-28T11:16:16.130Z,10956.00
2018-08-28T11:17:16.096Z,10488.00
2018-08-28T11:18:16.042Z,10660.00
2018-08-28T11:19:16.034Z,10624.00
2018-08-28T11:20:16.026Z,10428.00
2018-08-28T11:21:16.017Z,10416.00
2018-08-28T11:22:16.041Z,10640.00
2018-08-28T11:23:16.013Z,10920.00
2018-08-28T11:24:15.983Z,11648.00
2018-08-28T11:25:15.972Z,11348.00
2018-08-28T11:26:15.957Z,11736.00
2018-08-28T11:27:15.951Z,11464.00
2018-08-28T11:28:15.970Z,11308.00
2018-08-28T11:29:15.932Z,11372.00
2018-08-28T11:30:15.914Z,11544.00
2018-08-28T11:31:15.950Z,11840.00
2018-08-28T11:32:15.900Z,12396.00
2018-08-28T11:33:15.909Z,12488.00
2018-08-28T11:34:15.874Z,11952.00
2018-08-28T11:35:15.862Z,11980.00
2018-08-28T11:36:15.855Z,12056.00
2018-08-28T11:37:15.869Z,12648.00
2018-08-28T11:38:15.915Z,13572.00
2018-08-28T11:39:15.836Z,27936.00
2018-08-28T11:40:15.814Z,56992.00
2018-08-28T11:41:15.815Z,69440.00
2018-08-28T11:42:15.791Z,61856.00
2018-08-28T11:43:15.830Z,75584.00
2018-08-28T11:44:15.768Z,74912.00
2018-08-28T11:45:15.762Z,71488.00
2018-08-28T11:46:15.825Z,79296.00
2018-08-28T11:47:15.858Z,76064.00
2018-08-28T11:48:15.748Z,69056.00
2018-08-28T11:49:15.747Z,75104.00
2018-08-28T11:50:15.774Z,77056.00
2018-08-28T11:51:15.703Z,67552.00
2018-08-28T11:52:15.837Z,74016.00
2018-08-28T11:53:15.705Z,74976.00
2018-08-28T11:54:15.704Z,73728.00
2018-08-28T11:55:15.657Z,45344.00
2018-08-28T11:56:15.654Z,73984.00
2018-08-28T11:57:15.647Z,59968.00
2018-08-28T11:58:15.628Z,60320.00
2018-08-28T11:59:15.627Z,65824.00
2018-08-28T12:00:15.639Z,47584.00
2018-08-28T12:01:15.597Z,70592.00
2018-08-28T12:02:15.586Z,73120.00
2018-08-28T12:03:15.608Z,70944.00
2018-08-28T12:04:15.584Z,55904.00
2018-08-28T12:05:15.612Z,55168.00
2018-08-28T12:06:15.553Z,46976.00
2018-08-28T12:07:15.585Z,56768.00
2018-08-28T12:08:15.534Z,93088.00
2018-08-28T12:09:15.582Z,16144.00
2018-08-28T12:10:15.550Z,50624.00
2018-08-28T12:11:15.501Z,61568.00
2018-08-28T12:12:15.494Z,66528.00
2018-08-28T12:13:15.525Z,68640.00
2018-08-28T12:14:15.474Z,67520.00
2018-08-28T12:15:15.484Z,58240.00
2018-08-28T12:16:15.456Z,58560.00
2018-08-28T12:17:15.445Z,55936.00
2018-08-28T12:18:15.441Z,54464.00
2018-08-28T12:19:15.420Z,74912.00
2018-08-28T12:20:15.493Z,58208.00
2018-08-28T12:21:15.421Z,69440.00
2018-08-28T12:22:15.401Z,67040.00